Time;durP1;ratioP1;P1;durP2;ratioP2;P2;SDS_P1;SDS_P2;PMS_P1;PMS_P2;Temp;Humidity;BMP_temperature;BMP_pressure;BME280_temperature;BME280_humidity;BME280_pressure;Samples;Min_cycle;Max_cycle;Signal;HPM_P1;HPM_P2
2021/07/19 00:00:00;;;;;;;7.90;4.10;;;;;;;22.15;63.07;99901.64;126732;1090;103438;-84
2021/07/19 00:03:09;;;;;;;7.53;3.80;;;;;;;22.13;63.10;99898.28;126600;1090;114315;-83
2021/07/19 00:05:57;;;;;;;6.47;3.90;;;;;;;22.13;63.46;99903.59;126670;1090;103370;-83
2021/07/19 00:08:47;;;;;;;7.73;3.90;;;;;;;22.10;63.43;99903.02;126803;1090;102919;-84
2021/07/19 00:11:38;;;;;;;6.83;3.70;;;;;;;22.07;63.30;99900.59;126690;1090;102898;-84
2021/07/19 00:14:27;;;;;;;6.43;3.60;;;;;;;22.02;63.33;99903.62;126766;1088;102940;-84
2021/07/19 00:17:20;;;;;;;7.27;3.90;;;;;;;21.92;63.19;99897.42;126650;1089;114874;-84
2021/07/19 00:20:09;;;;;;;5.90;3.30;;;;;;;21.87;63.43;99900.45;126825;1090;102877;-84
2021/07/19 00:22:56;;;;;;;6.60;3.33;;;;;;;21.82;64.25;99907.13;126661;1088;113915;-83
2021/07/19 00:25:44;;;;;;;8.27;4.10;;;;;;;21.77;64.38;99904.86;126767;1089;102846;-84
2021/07/19 00:28:32;;;;;;;7.47;4.33;;;;;;;21.72;64.73;99909.69;126689;1090;114072;-84
2021/07/19 00:31:21;;;;;;;6.00;3.93;;;;;;;21.69;64.78;99905.48;126714;1090;103387;-84
2021/07/19 00:34:09;;;;;;;8.50;3.80;;;;;;;21.73;64.80;99906.10;126692;1090;113033;-84
2021/07/19 00:36:58;;;;;;;8.50;3.63;;;;;;;21.78;64.75;99908.36;126808;1088;102908;-83
2021/07/19 00:39:46;;;;;;;7.63;4.10;;;;;;;21.83;64.92;99906.15;126652;1089;114100;-84
2021/07/19 00:42:36;;;;;;;6.17;3.67;;;;;;;21.82;64.63;99904.47;126782;1088;103081;-84
2021/07/19 00:45:26;;;;;;;7.10;3.65;;;;;;;21.81;64.49;99908.09;126630;1089;112934;-84
2021/07/19 00:48:15;;;;;;;8.53;3.37;;;;;;;21.82;65.10;99915.09;126717;1090;102351;-84
2021/07/19 00:51:04;;;;;;;6.53;3.83;;;;;;;21.82;64.96;99920.39;126792;1090;103006;-83
2021/07/19 00:53:53;;;;;;;6.43;3.60;;;;;;;21.81;64.84;99918.72;126721;1090;112691;-84
2021/07/19 00:56:42;;;;;;;5.30;3.50;;;;;;;21.77;65.12;99922.61;126828;1089;102746;-84
2021/07/19 00:59:32;;;;;;;5.87;3.60;;;;;;;21.76;65.28;99919.11;126698;1088;114176;-84
2021/07/19 01:02:21;;;;;;;3.83;2.87;;;;;;;21.76;64.74;99920.92;126824;1089;101805;-84
2021/07/19 01:05:11;;;;;;;7.13;4.20;;;;;;;21.77;65.00;99922.61;126671;1090;114113;-84
2021/07/19 01:08:03;;;;;;;7.23;4.03;;;;;;;21.79;64.21;99925.97;126716;1090;102928;-84
2021/07/19 01:10:52;;;;;;;6.23;4.00;;;;;;;21.79;64.53;99926.81;126728;1088;113642;-84
2021/07/19 01:13:41;;;;;;;6.13;3.47;;;;;;;21.77;64.81;99928.75;126760;1090;102962;-84
2021/07/19 01:16:28;;;;;;;;;;;;;;;21.76;64.36;99920.92;126712;1090;115029;-84
2021/07/19 01:19:21;;;;;;;9.27;4.37;;;;;;;21.70;64.17;99922.25;126817;1089;103096;-84
2021/07/19 01:22:51;;;;;;;8.40;5.53;;;;;;;21.62;63.97;99928.22;126655;1088;114090;-84
2021/07/19 01:26:12;;;;;;;9.13;6.10;;;;;;;21.51;63.71;99922.09;126976;1090;102990;-84
2021/07/19 01:29:03;;;;;;;10.57;6.20;;;;;;;21.44;63.41;99919.13;126721;1090;114266;-84
2021/07/19 01:31:52;;;;;;;11.23;6.87;;;;;;;21.39;63.17;99923.97;126802;1090;102955;-84
2021/07/19 01:34:42;;;;;;;9.67;7.00;;;;;;;21.32;62.69;99928.08;126700;1089;114173;-83
2021/07/19 01:37:32;;;;;;;10.83;6.60;;;;;;;21.25;62.85;99929.55;126806;1089;102849;-84
2021/07/19 01:40:26;;;;;;;10.60;6.50;;;;;;;21.19;62.40;99937.98;126684;1090;114278;-84
2021/07/19 01:43:16;;;;;;;9.50;7.13;;;;;;;21.13;62.67;99934.84;126815;1089;102997;-84
2021/07/19 01:46:06;;;;;;;11.77;7.20;;;;;;;21.11;62.26;99926.17;126767;1088;114336;-84
2021/07/19 01:48:56;;;;;;;11.97;7.13;;;;;;;21.09;62.13;99938.72;126889;1089;100738;-84
2021/07/19 01:51:46;;;;;;;9.87;7.67;;;;;;;21.07;62.45;99935.35;126671;1088;114453;-84
2021/07/19 01:54:36;;;;;;;11.80;7.77;;;;;;;21.07;62.67;99940.66;126859;1090;101816;-84
2021/07/19 01:57:27;;;;;;;7.53;6.47;;;;;;;21.05;62.23;99942.59;126777;1090;103416;-83
2021/07/19 02:00:17;;;;;;;8.80;7.00;;;;;;;21.01;61.86;99941.16;126836;1089;102861;-83
2021/07/19 02:03:21;;;;;;;10.23;7.00;;;;;;;21.01;61.58;99945.62;126808;1090;103335;-84
2021/07/19 02:06:13;;;;;;;11.37;6.70;;;;;;;20.99;61.53;99935.11;126531;1090;114077;-84
2021/07/19 02:09:09;;;;;;;10.40;6.60;;;;;;;20.95;60.48;99938.98;126741;1089;102990;-84
2021/07/19 02:12:18;;;;;;;9.33;6.13;;;;;;;20.89;59.95;99934.17;126688;1090;114043;-84
2021/07/19 02:15:19;;;;;;;9.20;6.30;;;;;;;20.79;59.73;99941.16;126770;1089;103093;-84
2021/07/19 02:18:14;;;;;;;12.37;6.17;;;;;;;20.71;59.32;99951.54;126710;1089;114121;-84
2021/07/19 02:21:06;;;;;;;9.50;6.10;;;;;;;20.66;59.27;99946.61;126760;1089;103043;-84
2021/07/19 02:24:03;;;;;;;8.20;6.00;;;;;;;20.66;58.96;99948.42;126632;1089;114125;-84
2021/07/19 02:27:20;;;;;;;8.50;5.53;;;;;;;20.62;59.34;99953.09;126773;1088;102926;-84
2021/07/19 02:30:14;;;;;;;9.60;5.83;;;;;;;20.59;59.28;99961.28;126652;1090;114125;-84
2021/07/19 02:33:05;;;;;;;7.10;5.90;;;;;;;20.56;58.97;99958.88;126806;1090;102971;-84
2021/07/19 02:35:56;;;;;;;10.07;6.13;;;;;;;20.55;59.35;99959.00;126636;1090;114256;-84
2021/07/19 02:38:52;;;;;;;8.63;6.60;;;;;;;20.51;59.00;99955.75;126859;1088;102980;-84
2021/07/19 02:41:44;;;;;;;9.87;6.13;;;;;;;20.51;59.30;99961.05;126696;1090;114491;-84
2021/07/19 02:44:34;;;;;;;9.27;5.67;;;;;;;20.52;59.11;99957.44;126746;1090;101775;-84
2021/07/19 02:47:36;;;;;;;7.27;5.27;;;;;;;20.54;58.77;99958.16;126766;1090;114053;-84
2021/07/19 02:50:25;;;;;;;8.37;5.80;;;;;;;20.56;59.01;99958.03;126774;1089;102962;-84
2021/07/19 02:53:16;;;;;;;12.17;5.63;;;;;;;20.57;59.07;99954.42;126588;1090;112906;-84
2021/07/19 02:56:06;;;;;;;7.90;5.67;;;;;;;20.59;58.38;99965.73;126765;1089;101612;-84
2021/07/19 02:58:55;;;;;;;9.87;5.60;;;;;;;20.55;58.41;99964.30;126728;1090;114062;-84
2021/07/19 03:01:49;;;;;;;7.43;5.40;;;;;;;20.50;58.13;99967.31;126819;1090;102983;-83
2021/07/19 03:04:40;;;;;;;8.50;5.27;;;;;;;20.47;58.18;99967.56;126635;1090;113255;-83
2021/07/19 03:07:33;;;;;;;8.07;5.40;;;;;;;20.40;58.26;99974.24;126849;1089;102903;-83
2021/07/19 03:10:22;;;;;;;8.03;5.57;;;;;;;20.37;58.27;99985.08;126744;1090;114131;-83
2021/07/19 03:13:17;;;;;;;10.83;5.93;;;;;;;20.35;58.07;99979.91;126704;1090;101482;-83
2021/07/19 03:16:05;;;;;;;7.77;4.83;;;;;;;20.35;57.90;99976.41;126722;1089;113376;-83
2021/07/19 03:19:00;;;;;;;9.10;5.53;;;;;;;20.33;58.07;99981.83;126786;1090;102729;-83
2021/07/19 03:21:50;;;;;;;8.80;5.40;;;;;;;20.32;58.15;99982.79;126866;1089;102958;-83
2021/07/19 03:24:47;;;;;;;10.90;5.80;;;;;;;20.31;57.98;99978.45;126626;1090;112910;-84
2021/07/19 03:27:41;;;;;;;9.17;5.57;;;;;;;20.29;58.22;99983.03;126798;1089;102877;-83
2021/07/19 03:30:31;;;;;;;7.65;5.20;;;;;;;20.27;58.40;99990.22;126691;1089;114150;-83
2021/07/19 03:33:21;;;;;;;9.37;5.70;;;;;;;20.27;58.33;99992.87;126673;1089;103046;-84
2021/07/19 03:36:12;;;;;;;10.93;5.60;;;;;;;20.27;58.03;99997.32;126662;1089;113982;-84
2021/07/19 03:39:02;;;;;;;6.70;5.00;;;;;;;20.26;58.08;99998.28;126757;1090;102878;-84
2021/07/19 03:42:05;;;;;;;12.37;5.83;;;;;;;20.25;58.16;99997.44;126694;1090;114080;-84
2021/07/19 03:44:56;;;;;;;9.67;5.17;;;;;;;20.29;58.58;99996.27;126799;1090;102989;-84
2021/07/19 03:47:47;;;;;;;11.17;5.17;;;;;;;20.35;58.09;99992.30;126634;1089;114030;-84
2021/07/19 03:50:37;;;;;;;8.85;5.15;;;;;;;20.34;57.83;99987.97;126770;1089;102801;-84
2021/07/19 03:53:27;;;;;;;8.10;5.50;;;;;;;20.34;58.46;99988.81;126704;1090;114161;-84
2021/07/19 03:56:20;;;;;;;9.33;5.23;;;;;;;20.38;58.10;99986.77;126739;1090;102850;-84
2021/07/19 03:59:26;;;;;;;9.73;6.17;;;;;;;20.40;58.07;99988.33;126608;1090;114255;-84
2021/07/19 04:02:17;;;;;;;7.47;5.50;;;;;;;20.41;58.40;99989.20;126771;1090;103070;-84
2021/07/19 04:05:13;;;;;;;8.23;6.30;;;;;;;20.44;58.68;99992.45;126713;1090;114185;-84
2021/07/19 04:08:11;;;;;;;6.80;5.30;;;;;;;20.47;58.22;99996.70;126788;1090;102879;-84
2021/07/19 04:11:01;;;;;;;7.90;5.30;;;;;;;20.47;58.34;100002.00;126638;1090;114083;-84
2021/07/19 04:13:51;;;;;;;11.40;6.47;;;;;;;20.50;58.39;100002.59;126812;1090;102887;-84
2021/07/19 04:16:41;;;;;;;9.43;5.70;;;;;;;20.53;58.15;100000.67;126661;1090;114466;-84
2021/07/19 04:19:32;;;;;;;8.80;5.57;;;;;;;20.54;58.03;100002.36;126787;1090;102819;-84
2021/07/19 04:22:21;;;;;;;8.13;5.43;;;;;;;20.53;57.97;99998.86;126670;1089;113425;-84
2021/07/19 04:25:15;;;;;;;9.43;5.50;;;;;;;20.54;58.03;100015.60;126789;1089;103024;-84
2021/07/19 04:28:08;;;;;;;12.63;5.30;;;;;;;20.57;58.35;100004.77;126805;1090;103024;-84
2021/07/19 04:30:57;;;;;;;8.37;5.77;;;;;;;20.59;58.61;100013.44;126624;1088;114076;-84
2021/07/19 04:33:47;;;;;;;8.03;5.77;;;;;;;20.58;58.01;100012.59;126798;1090;102897;-84
2021/07/19 04:36:41;;;;;;;8.73;5.40;;;;;;;20.60;58.07;100015.96;126726;1090;113371;-84
2021/07/19 04:39:30;;;;;;;10.30;6.23;;;;;;;20.64;58.42;100011.27;126776;1089;103026;-84
2021/07/19 04:42:19;;;;;;;8.40;5.97;;;;;;;20.70;58.27;100006.34;126709;1089;114456;-84
2021/07/19 04:45:08;;;;;;;10.13;6.20;;;;;;;20.76;58.54;100007.67;126749;1090;102886;-84
2021/07/19 04:47:55;;;;;;;8.03;5.97;;;;;;;20.79;57.82;100004.77;126659;1090;114333;-84
2021/07/19 04:50:46;;;;;;;8.73;6.27;;;;;;;20.85;58.30;100006.96;126766;1088;102879;-84
2021/07/19 04:53:33;;;;;;;8.27;6.10;;;;;;;20.90;58.28;100004.78;126627;1089;114146;-84
2021/07/19 04:56:23;;;;;;;9.43;5.83;;;;;;;20.94;57.98;100005.38;126777;1090;102962;-83
2021/07/19 04:59:12;;;;;;;7.57;5.77;;;;;;;21.02;58.00;100017.08;126603;1089;113357;-84
2021/07/19 05:02:00;;;;;;;10.10;6.33;;;;;;;21.15;58.08;100006.32;126704;1090;102886;-84
2021/07/19 05:04:52;;;;;;;7.43;5.70;;;;;;;21.20;57.70;99998.02;126583;1090;114413;-84
2021/07/19 05:07:43;;;;;;;9.97;6.30;;;;;;;21.25;57.79;100017.92;126719;1090;102985;-84
2021/07/19 05:10:31;;;;;;;9.73;6.40;;;;;;;21.40;57.91;100015.86;126668;1090;102970;-84
2021/07/19 05:13:20;;;;;;;10.77;6.17;;;;;;;21.58;57.11;100018.83;126617;1088;114019;-84
2021/07/19 05:16:11;;;;;;;10.33;5.67;;;;;;;21.68;57.04;100020.59;126703;1090;102880;-84
2021/07/19 05:19:00;;;;;;;8.17;5.83;;;;;;;21.93;56.89;100018.59;126662;1090;114291;-84
2021/07/19 05:21:48;;;;;;;9.17;5.60;;;;;;;22.14;56.64;100015.98;126707;1090;103067;-84
2021/07/19 05:24:36;;;;;;;12.27;7.50;;;;;;;22.34;56.10;100006.33;126580;1090;114413;-84
2021/07/19 05:27:25;;;;;;;14.27;5.80;;;;;;;22.54;55.18;100010.78;126796;1090;102873;-84
2021/07/19 05:30:12;;;;;;;8.90;5.47;;;;;;;22.79;54.96;100009.50;126617;1090;114453;-84
2021/07/19 05:33:00;;;;;;;9.45;5.60;;;;;;;22.99;54.59;100018.47;126723;1090;102948;-84
2021/07/19 05:35:48;;;;;;;8.25;5.05;;;;;;;23.19;53.99;100018.39;126654;1089;114154;-84
2021/07/19 05:38:36;;;;;;;8.93;5.17;;;;;;;23.50;53.88;100019.14;126732;1088;101396;-84
2021/07/19 05:41:23;;;;;;;10.57;5.00;;;;;;;24.07;53.82;100022.89;126630;1089;114485;-84
2021/07/19 05:44:12;;;;;;;11.90;6.55;;;;;;;25.25;52.38;100023.29;126825;1090;103051;-83
2021/07/19 05:47:01;;;;;;;8.90;4.57;;;;;;;27.03;50.06;100015.15;126597;1090;114492;-84
2021/07/19 05:49:49;;;;;;;9.87;5.30;;;;;;;28.75;46.88;100025.09;126814;1090;102918;-84
2021/07/19 05:52:38;;;;;;;7.50;4.30;;;;;;;30.40;43.93;100016.80;126695;1090;102904;-84
2021/07/19 05:55:27;;;;;;;5.63;3.60;;;;;;;31.71;41.93;100008.83;126644;1088;112821;-84
2021/07/19 05:58:16;;;;;;;8.17;3.93;;;;;;;33.18;40.02;100003.52;126649;1090;102910;-84
2021/07/19 06:01:03;;;;;;;6.83;4.40;;;;;;;34.25;37.82;100007.11;126659;1089;114180;-85
2021/07/19 06:03:51;;;;;;;5.60;3.83;;;;;;;35.23;36.08;100009.04;126942;1089;102909;-85
2021/07/19 06:06:39;;;;;;;7.17;3.77;;;;;;;36.02;34.52;100009.43;126622;1088;113388;-85
2021/07/19 06:09:27;;;;;;;5.93;3.90;;;;;;;36.66;33.45;100015.58;126724;1089;103140;-85
2021/07/19 06:12:14;;;;;;;7.13;3.95;;;;;;;37.30;32.30;100021.57;126635;1090;113080;-85
2021/07/19 06:15:04;;;;;;;6.43;3.40;;;;;;;37.86;31.32;100014.94;126788;1090;103007;-85
2021/07/19 06:17:54;;;;;;;5.80;3.53;;;;;;;38.46;30.33;100020.27;126663;1089;113179;-85
2021/07/19 06:20:42;;;;;;;8.33;3.70;;;;;;;38.98;29.30;100013.84;126741;1090;102911;-86
2021/07/19 06:23:30;;;;;;;8.00;3.77;;;;;;;39.40;28.48;100010.88;126627;1089;114481;-86
2021/07/19 06:26:19;;;;;;;5.03;3.47;;;;;;;39.93;27.62;100020.59;126777;1089;101967;-86
2021/07/19 06:29:08;;;;;;;4.55;3.50;;;;;;;40.15;26.90;100017.98;126558;1089;114473;-86
2021/07/19 06:32:00;;;;;;;7.17;3.47;;;;;;;40.48;26.61;100022.63;126727;1088;102876;-85
2021/07/19 06:34:51;;;;;;;6.47;3.20;;;;;;;40.91;25.89;100019.14;126606;1089;102932;-86
2021/07/19 06:37:39;;;;;;;7.70;2.90;;;;;;;41.33;25.38;100024.89;126579;1089;114168;-86
2021/07/19 06:40:27;;;;;;;7.57;3.93;;;;;;;42.06;25.01;100022.61;126727;1090;103019;-86
2021/07/19 06:43:15;;;;;;;5.57;3.63;;;;;;;42.21;24.38;100019.20;126531;1090;114355;-85
2021/07/19 06:46:04;;;;;;;6.63;3.63;;;;;;;42.20;23.77;100023.03;126750;1088;103081;-85
2021/07/19 06:48:51;;;;;;;7.80;3.33;;;;;;;41.90;23.88;100024.39;126651;1090;115082;-85
2021/07/19 06:51:39;;;;;;;6.13;3.43;;;;;;;41.29;23.21;100033.85;126703;1090;102919;-85
2021/07/19 06:54:26;;;;;;;5.80;3.83;;;;;;;41.08;23.47;100027.28;126581;1089;114265;-86
2021/07/19 06:57:14;;;;;;;5.73;3.90;;;;;;;41.45;23.26;100026.64;126622;1090;102684;-86
2021/07/19 07:00:04;;;;;;;4.63;3.37;;;;;;;41.87;23.11;100011.22;126545;1089;114306;-85
2021/07/19 07:02:51;;;;;;;6.30;3.30;;;;;;;42.08;22.23;100017.72;126700;1090;101720;-86
2021/07/19 07:05:40;;;;;;;6.27;3.33;;;;;;;42.19;22.22;100024.09;126682;1089;114446;-85
2021/07/19 07:08:27;;;;;;;8.40;3.40;;;;;;;42.13;21.96;100016.92;126795;1089;101531;-85
2021/07/19 07:11:17;;;;;;;4.63;2.90;;;;;;;42.32;21.73;100020.91;126753;1089;102884;-85
2021/07/19 07:14:05;;;;;;;6.57;3.40;;;;;;;42.38;21.43;100025.36;126583;1089;114116;-85
2021/07/19 07:16:53;;;;;;;5.43;3.03;;;;;;;42.06;21.45;100022.61;126691;1090;102963;-85
2021/07/19 07:19:41;;;;;;;7.23;3.23;;;;;;;41.77;21.51;100029.47;126631;1089;114183;-84
2021/07/19 07:22:31;;;;;;;5.57;2.87;;;;;;;41.58;21.15;100020.77;126691;1090;102906;-84
2021/07/19 07:25:19;;;;;;;5.33;3.00;;;;;;;41.49;20.99;100027.80;126623;1089;113464;-84
2021/07/19 07:28:06;;;;;;;5.50;2.70;;;;;;;41.86;21.25;100016.97;126747;1089;102903;-85
2021/07/19 07:30:54;;;;;;;4.80;2.70;;;;;;;42.07;20.88;100020.70;126651;1089;114509;-85
2021/07/19 07:33:46;;;;;;;5.63;3.07;;;;;;;42.31;20.80;100019.25;126695;1090;103012;-85
2021/07/19 07:36:35;;;;;;;6.80;3.07;;;;;;;42.73;20.43;100016.55;126664;1089;113124;-85
2021/07/19 07:39:42;;;;;;;6.03;3.10;;;;;;;42.91;19.96;100023.48;126701;1090;102687;-85
2021/07/19 07:42:31;;;;;;;5.50;3.13;;;;;;;43.04;19.90;100017.52;126622;1090;114243;-85
2021/07/19 07:45:19;;;;;;;4.90;3.27;;;;;;;42.99;19.88;100011.19;126802;1090;102880;-85
2021/07/19 07:48:11;;;;;;;5.50;3.20;;;;;;;42.83;19.70;100010.27;126685;1089;114839;-85
2021/07/19 07:50:59;;;;;;;5.40;2.63;;;;;;;42.76;19.91;100009.70;126845;1088;103050;-85
2021/07/19 07:53:49;;;;;;;4.83;2.67;;;;;;;42.75;19.31;100008.05;126641;1089;114484;-85
2021/07/19 07:56:37;;;;;;;3.87;2.63;;;;;;;42.54;19.40;100007.91;126754;1089;102892;-84
2021/07/19 07:59:45;;;;;;;9.03;4.73;;;;;;;42.63;19.73;100008.25;126575;1090;114271;-85
2021/07/19 08:02:33;;;;;;;6.80;3.40;;;;;;;42.43;19.06;100000.70;126689;1088;103028;-84
2021/07/19 08:05:21;;;;;;;6.13;2.40;;;;;;;42.23;18.95;100011.54;126644;1089;102953;-84
2021/07/19 08:08:09;;;;;;;5.70;3.00;;;;;;;42.14;19.06;100018.58;126656;1090;114229;-84
2021/07/19 08:10:56;;;;;;;7.10;3.30;;;;;;;42.18;19.09;100020.52;126803;1090;101047;-84
2021/07/19 08:13:44;;;;;;;5.67;2.90;;;;;;;41.94;19.21;100011.82;126657;1089;113605;-84
2021/07/19 08:16:36;;;;;;;4.83;2.40;;;;;;;41.43;19.22;100007.73;126732;1090;102699;-84
2021/07/19 08:19:28;;;;;;;7.67;3.33;;;;;;;40.30;19.72;100009.20;126692;1090;113224;-84
2021/07/19 08:22:17;;;;;;;7.43;2.70;;;;;;;40.04;20.23;100011.55;126765;1089;102871;-84
2021/07/19 08:25:06;;;;;;;7.50;3.43;;;;;;;39.20;20.69;100010.48;126664;1088;114089;-86
2021/07/19 08:27:56;;;;;;;6.50;2.60;;;;;;;38.09;21.63;100007.66;126689;1089;102886;-84
2021/07/19 08:30:43;;;;;;;7.13;2.90;;;;;;;38.28;21.94;100011.14;126590;1090;114137;-84
2021/07/19 08:33:31;;;;;;;5.13;2.70;;;;;;;38.61;21.52;100007.83;126926;1090;102875;-84
2021/07/19 08:36:19;;;;;;;5.27;2.87;;;;;;;38.34;21.99;100002.02;126724;1089;113248;-84
2021/07/19 08:39:07;;;;;;;6.00;2.63;;;;;;;38.08;21.93;100007.91;126692;1090;100918;-84
2021/07/19 08:41:56;;;;;;;4.27;2.83;;;;;;;37.73;22.20;100011.38;126659;1089;114265;-84
2021/07/19 08:44:44;;;;;;;5.40;3.00;;;;;;;37.89;22.24;99998.99;126797;1088;100737;-84
2021/07/19 08:47:46;;;;;;;7.03;3.07;;;;;;;37.67;22.25;100006.81;126865;1089;103027;-84
2021/07/19 08:50:34;;;;;;;6.70;3.00;;;;;;;37.78;22.42;100008.78;126703;1088;102946;-84
2021/07/19 08:53:22;;;;;;;5.70;3.33;;;;;;;38.00;22.24;100011.78;126730;1090;102911;-84
2021/07/19 08:56:13;;;;;;;4.43;3.13;;;;;;;37.98;22.01;100010.36;126582;1089;114361;-84
2021/07/19 08:59:00;;;;;;;5.13;3.03;;;;;;;38.20;22.39;100003.30;126680;1090;102793;-84
2021/07/19 09:01:49;;;;;;;5.07;2.97;;;;;;;38.58;22.03;99996.55;126778;1089;114105;-84
2021/07/19 09:04:37;;;;;;;5.70;3.10;;;;;;;39.01;21.72;99998.06;126731;1090;102989;-84
2021/07/19 09:07:28;;;;;;;5.73;3.30;;;;;;;38.91;21.79;100002.22;126613;1089;113920;-84
2021/07/19 09:10:24;;;;;;;5.53;3.50;;;;;;;38.92;21.42;99994.86;126884;1089;102879;-84
2021/07/19 09:13:19;;;;;;;5.40;3.30;;;;;;;38.68;21.60;100002.27;126576;1088;114251;-84
2021/07/19 09:16:07;;;;;;;6.40;3.20;;;;;;;38.86;21.69;99999.39;126716;1089;102873;-84
2021/07/19 09:19:06;;;;;;;6.97;3.40;;;;;;;38.80;21.36;99997.64;126574;1088;114283;-84
2021/07/19 09:22:03;;;;;;;6.07;3.07;;;;;;;38.44;21.84;99995.16;126710;1089;102901;-84
2021/07/19 09:25:05;;;;;;;8.95;3.60;;;;;;;37.37;21.72;99997.85;126603;1090;113039;-84
2021/07/19 09:28:04;;;;;;;4.53;2.90;;;;;;;36.20;22.37;100015.97;126701;1090;103136;-84
2021/07/19 09:30:52;;;;;;;6.75;3.58;;;;;;;35.86;23.67;100015.39;126641;1090;114443;-84
2021/07/19 09:33:40;;;;;;;5.20;3.90;;;;;;;35.99;24.11;100003.62;126695;1089;102682;-84
2021/07/19 09:36:31;;;;;;;7.87;4.03;;;;;;;35.83;23.98;100004.95;126677;1089;114530;-84
2021/07/19 09:39:19;;;;;;;4.90;3.67;;;;;;;35.21;24.06;100003.83;126778;1089;101665;-84
2021/07/19 09:42:13;;;;;;;10.50;3.73;;;;;;;34.69;24.87;100008.35;126651;1088;102988;-84
2021/07/19 09:45:01;;;;;;;5.07;3.63;;;;;;;34.44;25.28;100010.05;126717;1089;102877;-84
2021/07/19 09:47:49;;;;;;;6.33;3.80;;;;;;;34.38;25.68;100000.89;126725;1088;102981;-84
2021/07/19 09:50:52;;;;;;;6.13;4.07;;;;;;;33.80;25.36;100003.33;126601;1090;114196;-84
2021/07/19 09:53:43;;;;;;;6.97;4.10;;;;;;;32.99;26.13;100018.61;126763;1089;102904;-83
2021/07/19 09:56:31;;;;;;;8.80;4.40;;;;;;;32.97;27.13;100018.81;126581;1089;114136;-83
2021/07/19 09:59:19;;;;;;;7.67;4.70;;;;;;;33.55;27.32;100003.05;126721;1089;102953;-83
2021/07/19 10:02:08;;;;;;;7.30;4.60;;;;;;;33.46;27.03;99998.88;126651;1089;113065;-84
2021/07/19 10:04:56;;;;;;;6.63;3.93;;;;;;;33.24;27.21;100003.56;126781;1088;103052;-84
2021/07/19 10:07:47;;;;;;;8.05;4.35;;;;;;;33.40;27.16;100002.41;126799;1088;114160;-84
2021/07/19 10:10:41;;;;;;;7.57;4.60;;;;;;;33.43;26.85;100007.41;126652;1090;103446;-83
2021/07/19 10:13:34;;;;;;;7.00;4.67;;;;;;;33.21;27.18;100005.81;126607;1090;114188;-83
2021/07/19 10:16:23;;;;;;;6.85;4.30;;;;;;;32.67;27.61;100007.38;126741;1087;102981;-83
2021/07/19 10:19:15;;;;;;;7.50;4.77;;;;;;;32.28;27.68;100009.81;126697;1089;113711;-83
2021/07/19 10:22:03;;;;;;;14.90;10.10;;;;;;;32.20;28.61;100009.94;126762;1088;102917;-83
2021/07/19 10:24:51;;;;;;;8.63;5.73;;;;;;;32.43;28.48;100005.98;126608;1089;114784;-83
2021/07/19 10:27:39;;;;;;;8.03;5.20;;;;;;;32.64;28.50;100001.55;126726;1090;102959;-83
2021/07/19 10:30:28;;;;;;;11.67;5.40;;;;;;;32.81;28.01;100005.63;126698;1089;102959;-83
2021/07/19 10:33:17;;;;;;;9.20;4.97;;;;;;;32.68;27.74;100003.68;126642;1088;114120;-83
2021/07/19 10:36:07;;;;;;;8.33;4.73;;;;;;;33.12;27.96;99997.06;126785;1089;101720;-84
2021/07/19 10:39:01;;;;;;;6.60;4.80;;;;;;;33.51;27.56;100000.97;126596;1089;112829;-83
2021/07/19 10:42:05;;;;;;;8.63;4.97;;;;;;;33.70;27.51;99983.11;126751;1090;102679;-83
2021/07/19 10:44:53;;;;;;;7.15;4.80;;;;;;;33.72;27.18;99984.57;126684;1089;113998;-83
2021/07/19 10:48:00;;;;;;;9.07;4.90;;;;;;;33.41;26.66;99987.02;126732;1089;102953;-83
2021/07/19 10:50:48;;;;;;;11.70;5.23;;;;;;;32.96;27.10;99990.13;126731;1089;113982;-83
2021/07/19 10:53:36;;;;;;;8.93;5.23;;;;;;;32.67;27.65;99990.34;126654;1090;101174;-84
2021/07/19 10:56:28;;;;;;;11.30;4.87;;;;;;;32.35;27.47;99981.86;126612;1089;114357;-84
2021/07/19 10:59:30;;;;;;;7.83;5.17;;;;;;;31.98;27.92;99991.08;126658;1089;102920;-83
2021/07/19 11:02:30;;;;;;;7.40;4.93;;;;;;;31.94;28.17;99986.24;126485;1090;112964;-85
2021/07/19 11:05:18;;;;;;;8.83;4.90;;;;;;;32.22;28.40;99978.19;126712;1088;102900;-85
2021/07/19 11:08:18;;;;;;;10.20;5.50;;;;;;;32.40;27.95;99979.39;126583;1090;114162;-84
2021/07/19 11:11:10;;;;;;;7.70;4.97;;;;;;;32.39;27.96;99980.42;126730;1090;102949;-83
2021/07/19 11:14:05;;;;;;;7.93;5.30;;;;;;;32.28;27.67;99991.75;126550;1089;113942;-84
2021/07/19 11:16:55;;;;;;;9.60;5.20;;;;;;;32.06;27.92;99979.30;126713;1089;100927;-83
2021/07/19 11:19:54;;;;;;;9.95;5.13;;;;;;;31.66;28.13;99976.22;126545;1090;113979;-83
2021/07/19 11:22:44;;;;;;;8.07;5.27;;;;;;;31.52;28.40;99974.41;126695;1090;102896;-83
2021/07/19 11:25:43;;;;;;;11.10;5.30;;;;;;;31.50;28.72;99965.69;126604;1089;114282;-84
2021/07/19 11:28:41;;;;;;;10.47;6.10;;;;;;;31.42;28.75;99966.65;126645;1089;102916;-84
2021/07/19 11:31:31;;;;;;;22.60;5.87;;;;;;;31.48;29.16;99962.34;126558;1090;113409;-83
2021/07/19 11:34:24;;;;;;;12.60;5.27;;;;;;;31.35;28.89;99967.59;126730;1090;103703;-82
2021/07/19 11:37:12;;;;;;;10.43;5.93;;;;;;;31.01;29.48;99966.33;126566;1089;114474;-83
2021/07/19 11:40:00;;;;;;;9.63;6.50;;;;;;;31.02;29.62;99967.16;126707;1088;103377;-83
2021/07/19 11:42:50;;;;;;;9.87;5.90;;;;;;;30.76;29.77;99973.05;126657;1089;100837;-83
2021/07/19 11:45:43;;;;;;;9.80;5.83;;;;;;;30.43;29.74;99976.06;126691;1089;103658;-82
2021/07/19 11:48:33;;;;;;;7.50;6.15;;;;;;;30.27;30.13;99962.77;126674;1089;102921;-82
2021/07/19 11:51:21;;;;;;;8.50;5.83;;;;;;;30.18;30.30;99958.51;126563;1088;113313;-82
2021/07/19 11:54:17;;;;;;;8.30;6.23;;;;;;;30.25;30.30;99962.95;126896;1088;102689;-82
2021/07/19 11:57:04;;;;;;;11.00;6.33;;;;;;;30.30;30.35;99957.02;126666;1090;112999;-82
2021/07/19 11:59:52;;;;;;;8.60;5.57;;;;;;;30.11;30.52;99952.16;126967;1089;100436;-83
2021/07/19 12:02:40;;;;;;;9.27;5.90;;;;;;;29.95;30.96;99953.11;126629;1089;114303;-84
2021/07/19 12:05:29;;;;;;;8.70;5.77;;;;;;;29.84;31.36;99953.56;126660;1090;102955;-83
2021/07/19 12:08:23;;;;;;;8.67;5.93;;;;;;;29.68;31.09;99951.84;126570;1089;113923;-84
2021/07/19 12:11:11;;;;;;;8.13;5.90;;;;;;;29.48;31.31;99952.31;126721;1088;100516;-84
2021/07/19 12:14:08;;;;;;;8.43;6.13;;;;;;;29.32;31.20;99948.86;126643;1089;114180;-84
2021/07/19 12:16:57;;;;;;;10.30;6.37;;;;;;;29.08;31.22;99965.92;126650;1090;102978;-83
2021/07/19 12:19:49;;;;;;;7.87;6.37;;;;;;;28.72;32.01;99955.64;126562;1088;114435;-83
2021/07/19 12:22:37;;;;;;;11.20;7.47;;;;;;;28.40;31.84;99966.48;126749;1090;103046;-84
2021/07/19 12:25:25;;;;;;;10.25;6.40;;;;;;;28.20;32.96;99971.35;126641;1090;114147;-83
2021/07/19 12:28:16;;;;;;;10.30;6.67;;;;;;;28.00;32.81;99971.67;126699;1087;102884;-83
2021/07/19 12:31:16;;;;;;;9.73;6.83;;;;;;;27.78;33.22;99971.51;126794;1088;103087;-84
2021/07/19 12:34:21;;;;;;;9.63;5.97;;;;;;;27.64;34.02;99965.80;126682;1090;102705;-83
2021/07/19 12:37:12;;;;;;;10.70;5.83;;;;;;;27.69;33.95;99973.36;126760;1089;102917;-83
2021/07/19 12:40:00;;;;;;;8.60;6.40;;;;;;;27.95;34.01;99959.79;126649;1089;113917;-83
2021/07/19 12:42:51;;;;;;;11.43;6.67;;;;;;;27.99;34.20;99963.80;126593;1089;103001;-83
2021/07/19 12:45:40;;;;;;;8.27;6.10;;;;;;;27.95;34.12;99957.11;126592;1090;114534;-82
2021/07/19 12:48:30;;;;;;;9.23;6.77;;;;;;;27.96;34.01;99958.78;126724;1089;103039;-87
2021/07/19 12:51:34;;;;;;;9.90;6.23;;;;;;;27.96;33.95;99953.42;126562;1090;114270;-88
2021/07/19 12:54:26;;;;;;;10.57;6.10;;;;;;;28.05;34.39;99955.11;126715;1090;102700;-84
2021/07/19 12:57:17;;;;;;;8.97;5.97;;;;;;;28.15;34.32;99946.87;126548;1090;114109;-84
2021/07/19 13:00:14;;;;;;;9.97;6.13;;;;;;;28.18;34.30;99944.68;126759;1089;102884;-84